Time;durP1;ratioP1;P1;durP2;ratioP2;P2;SDS_P1;SDS_P2;PMS_P1;PMS_P2;Temp;Humidity;BMP_temperature;BMP_pressure;BME280_temperature;BME280_humidity;BME280_pressure;Samples;Min_cycle;Max_cycle;Signal;HPM_P1;HPM_P2
2023/04/17 00:00:07;;;;;;;29.40;17.40;;;8.90;99.90;;;;;;5013162;28;20077;-55
2023/04/17 00:02:38;;;;;;;32.28;17.17;;;8.90;99.90;;;;;;5013523;28;20477;-54
2023/04/17 00:05:07;;;;;;;30.23;17.58;;;8.90;99.90;;;;;;5013567;28;20488;-55
2023/04/17 00:07:33;;;;;;;29.20;16.35;;;9.00;99.90;;;;;;5013072;28;20081;-55
2023/04/17 00:09:59;;;;;;;30.85;16.98;;;8.90;99.90;;;;;;5013322;28;20046;-54
2023/04/17 00:12:25;;;;;;;30.67;17.27;;;8.90;99.90;;;;;;5012741;28;20037;-52
2023/04/17 00:14:51;;;;;;;31.83;17.80;;;8.90;99.90;;;;;;5013375;28;20417;-52
2023/04/17 00:17:16;;;;;;;30.73;17.52;;;9.00;99.90;;;;;;5012718;28;20044;-56
2023/04/17 00:19:42;;;;;;;34.08;18.95;;;9.00;99.90;;;;;;5012725;28;20034;-57
2023/04/17 00:22:08;;;;;;;33.10;18.77;;;8.90;99.90;;;;;;5012968;28;20077;-57
2023/04/17 00:24:33;;;;;;;33.58;17.88;;;8.90;99.90;;;;;;5012694;28;20096;-52
2023/04/17 00:27:00;;;;;;;30.88;16.83;;;8.90;99.90;;;;;;5012849;28;20042;-53
2023/04/17 00:29:25;;;;;;;28.40;16.65;;;8.90;99.90;;;;;;5011672;28;20053;-54
2023/04/17 00:31:51;;;;;;;29.50;16.88;;;8.90;99.90;;;;;;5013070;28;20034;-59
2023/04/17 00:34:17;;;;;;;28.58;16.75;;;8.90;99.90;;;;;;5012942;28;20461;-53
2023/04/17 00:36:42;;;;;;;26.73;15.68;;;8.80;99.90;;;;;;5011966;28;20038;-56
2023/04/17 00:39:08;;;;;;;27.38;17.42;;;8.90;99.90;;;;;;5010823;28;20086;-55
2023/04/17 00:41:34;;;;;;;32.08;18.00;;;8.80;99.90;;;;;;5011505;28;20049;-56
2023/04/17 00:43:59;;;;;;;29.05;16.13;;;8.80;99.90;;;;;;5012607;28;20045;-57
2023/04/17 00:46:25;;;;;;;27.33;16.15;;;8.80;99.90;;;;;;5012326;28;20042;-52
2023/04/17 00:48:51;;;;;;;31.27;17.40;;;8.80;99.90;;;;;;5012061;28;20083;-53
2023/04/17 00:51:16;;;;;;;28.88;17.25;;;8.70;99.90;;;;;;5008971;28;20041;-59
2023/04/17 00:53:43;;;;;;;29.40;16.80;;;8.80;99.90;;;;;;5010218;28;20054;-51
2023/04/17 00:56:09;;;;;;;27.48;16.15;;;8.80;99.90;;;;;;5011148;28;20074;-56
2023/04/17 00:58:36;;;;;;;30.98;17.58;;;8.80;99.90;;;;;;5010443;28;20082;-57
2023/04/17 01:01:03;;;;;;;29.73;17.90;;;8.70;99.90;;;;;;5009224;28;20034;-54
2023/04/17 01:03:31;;;;;;;26.27;16.73;;;8.70;99.90;;;;;;5010758;28;20068;-55
2023/04/17 01:05:58;;;;;;;30.25;17.77;;;8.70;99.90;;;;;;5011318;28;20037;-58
2023/04/17 01:08:23;;;;;;;30.73;17.35;;;8.80;99.90;;;;;;5010491;28;20053;-55
2023/04/17 01:10:49;;;;;;;29.70;17.95;;;8.70;99.90;;;;;;5011017;28;20458;-57
2023/04/17 01:13:15;;;;;;;27.40;17.13;;;8.80;99.90;;;;;;5010470;28;20068;-60
2023/04/17 01:15:41;;;;;;;27.27;16.67;;;8.60;99.90;;;;;;5011999;28;20419;-51
2023/04/17 01:18:07;;;;;;;33.03;17.50;;;8.50;99.90;;;;;;5009736;28;20536;-56
2023/04/17 01:20:33;;;;;;;30.88;17.92;;;8.50;99.90;;;;;;5010518;28;20040;-59
2023/04/17 01:23:00;;;;;;;30.38;18.27;;;8.40;99.90;;;;;;5010587;28;20090;-53
2023/04/17 01:25:27;;;;;;;31.75;17.95;;;8.50;99.90;;;;;;5011901;28;20056;-56
2023/04/17 01:27:53;;;;;;;31.13;18.08;;;8.50;99.90;;;;;;5010724;28;20511;-52
2023/04/17 01:30:19;;;;;;;34.70;19.50;;;8.40;99.90;;;;;;5011336;28;20034;-59
2023/04/17 01:32:45;;;;;;;36.17;18.77;;;8.50;99.90;;;;;;5009373;28;20108;-57
2023/04/17 01:35:10;;;;;;;38.15;19.67;;;8.30;99.90;;;;;;5010657;28;20034;-59
2023/04/17 01:37:36;;;;;;;32.45;18.95;;;8.30;99.90;;;;;;5010019;28;20121;-59
2023/04/17 01:40:05;;;;;;;35.22;19.67;;;8.40;99.90;;;;;;5009890;28;20120;-55
2023/04/17 01:42:34;;;;;;;31.17;19.25;;;8.40;99.90;;;;;;5009875;28;20038;-51
2023/04/17 01:45:00;;;;;;;38.22;20.13;;;8.40;99.90;;;;;;4977907;28;20146;-55
2023/04/17 01:47:25;;;;;;;33.70;19.25;;;8.30;99.90;;;;;;5008124;28;20133;-57
2023/04/17 01:49:51;;;;;;;34.83;18.83;;;8.30;99.90;;;;;;5010298;28;20076;-55
2023/04/17 01:52:16;;;;;;;34.85;20.35;;;8.50;99.90;;;;;;5009431;28;20048;-61
2023/04/17 01:54:42;;;;;;;35.33;20.73;;;8.40;99.90;;;;;;5008079;28;20164;-58
2023/04/17 01:57:08;;;;;;;32.58;19.88;;;8.40;99.90;;;;;;5011306;28;20112;-56
2023/04/17 01:59:33;;;;;;;36.55;19.48;;;8.60;99.90;;;;;;5011247;28;20109;-59
2023/04/17 02:01:59;;;;;;;31.70;19.77;;;8.60;99.90;;;;;;5010723;28;20041;-54
2023/04/17 02:04:25;;;;;;;34.90;19.58;;;8.50;99.90;;;;;;5011955;28;20061;-58
2023/04/17 02:06:51;;;;;;;36.80;21.13;;;8.60;99.90;;;;;;5012108;28;20469;-55
2023/04/17 02:09:16;;;;;;;36.05;19.95;;;8.50;99.90;;;;;;5011733;28;20038;-56
2023/04/17 02:11:42;;;;;;;34.40;19.33;;;8.60;99.90;;;;;;5009511;28;20117;-58
2023/04/17 02:14:08;;;;;;;39.10;21.85;;;8.50;99.90;;;;;;5011111;28;20040;-56
2023/04/17 02:16:34;;;;;;;36.53;20.77;;;8.50;99.90;;;;;;5013044;28;20739;-53
2023/04/17 02:18:59;;;;;;;39.28;21.80;;;8.60;99.90;;;;;;5021779;28;20491;-58
2023/04/17 02:21:26;;;;;;;37.17;21.20;;;8.60;99.90;;;;;;5010996;28;20054;-57
2023/04/17 02:23:52;;;;;;;38.65;22.42;;;8.60;99.90;;;;;;5011271;28;20097;-52
2023/04/17 02:26:18;;;;;;;41.00;21.45;;;8.60;99.90;;;;;;5010860;28;20050;-55
2023/04/17 02:28:44;;;;;;;39.17;21.30;;;8.40;99.90;;;;;;5019973;28;20492;-54
2023/04/17 02:31:11;;;;;;;44.03;29.55;;;8.50;99.90;;;;;;5010879;28;20431;-57
2023/04/17 02:33:37;;;;;;;41.97;21.42;;;8.40;99.90;;;;;;5009575;28;20053;-53
2023/04/17 02:36:05;;;;;;;40.15;21.25;;;8.40;99.90;;;;;;5010564;28;20143;-57
2023/04/17 02:38:31;;;;;;;44.33;22.60;;;8.40;99.90;;;;;;5010517;28;20077;-58
2023/04/17 02:40:57;;;;;;;36.58;19.92;;;8.40;99.90;;;;;;5009429;28;20135;-56
2023/04/17 02:43:23;;;;;;;42.20;23.05;;;8.40;99.90;;;;;;5011389;28;20131;-53
2023/04/17 02:45:49;;;;;;;42.83;22.42;;;8.50;99.90;;;;;;5010584;28;20038;-56
2023/04/17 02:48:15;;;;;;;44.42;23.52;;;8.50;99.90;;;;;;5010159;28;20042;-55
2023/04/17 02:50:40;;;;;;;43.70;22.77;;;8.50;99.90;;;;;;5010001;28;20044;-58
2023/04/17 02:53:06;;;;;;;41.45;22.60;;;8.30;99.90;;;;;;5010573;28;20030;-57
2023/04/17 02:55:32;;;;;;;45.78;23.45;;;8.30;99.90;;;;;;5009188;28;20062;-53
2023/04/17 02:57:58;;;;;;;45.33;29.55;;;8.20;99.90;;;;;;5011147;28;20462;-54
2023/04/17 03:00:25;;;;;;;44.80;22.73;;;8.50;99.90;;;;;;5010712;28;20048;-56
2023/04/17 03:02:51;;;;;;;43.42;22.77;;;8.50;99.90;;;;;;5010280;28;20120;-57
2023/04/17 03:05:19;;;;;;;44.53;21.90;;;8.30;99.90;;;;;;5010259;28;20048;-53
2023/04/17 03:07:45;;;;;;;42.08;21.90;;;8.50;99.90;;;;;;5008898;28;20093;-53
2023/04/17 03:10:11;;;;;;;42.97;22.85;;;8.50;99.90;;;;;;5010189;28;20080;-53
2023/04/17 03:12:36;;;;;;;46.47;23.85;;;8.30;99.90;;;;;;5010420;28;20032;-56
2023/04/17 03:15:02;;;;;;;44.65;23.05;;;8.20;99.90;;;;;;5010101;28;20030;-55
2023/04/17 03:17:28;;;;;;;52.08;24.77;;;8.50;99.90;;;;;;5009805;28;20038;-56
2023/04/17 03:19:54;;;;;;;45.53;24.15;;;8.40;99.90;;;;;;5008682;28;20061;-56
2023/04/17 03:22:19;;;;;;;43.42;24.45;;;8.40;99.90;;;;;;5010322;28;20100;-58
2023/04/17 03:24:45;;;;;;;48.22;26.08;;;8.20;99.90;;;;;;5010716;28;20048;-54
2023/04/17 03:27:11;;;;;;;46.45;25.17;;;8.20;99.90;;;;;;5014032;28;20030;-55
2023/04/17 03:29:37;;;;;;;45.03;23.40;;;8.20;99.90;;;;;;5013950;28;20460;-52
2023/04/17 03:32:03;;;;;;;51.92;24.67;;;8.40;99.90;;;;;;5014486;28;20440;-56
2023/04/17 03:34:29;;;;;;;46.40;25.60;;;8.40;99.90;;;;;;5013570;28;20034;-56
2023/04/17 03:36:55;;;;;;;42.22;24.20;;;8.30;99.90;;;;;;5013868;28;20125;-53
2023/04/17 03:39:21;;;;;;;49.28;24.90;;;8.30;99.90;;;;;;5012685;28;20128;-54
2023/04/17 03:41:46;;;;;;;49.80;24.98;;;8.50;99.90;;;;;;5013788;28;20042;-55
2023/04/17 03:44:12;;;;;;;47.47;24.27;;;8.40;99.90;;;;;;5013434;28;20130;-57
2023/04/17 03:46:38;;;;;;;48.38;24.20;;;8.50;99.90;;;;;;5012441;28;20073;-54
2023/04/17 03:49:05;;;;;;;51.95;26.08;;;8.40;99.90;;;;;;5013568;28;20406;-59
2023/04/17 03:51:31;;;;;;;52.75;24.48;;;8.40;99.90;;;;;;5014060;28;20482;-56
2023/04/17 03:53:57;;;;;;;46.40;24.10;;;8.40;99.90;;;;;;5010992;28;20068;-52
2023/04/17 03:56:22;;;;;;;46.85;24.27;;;8.40;99.90;;;;;;5020506;28;20545;-60
2023/04/17 03:58:48;;;;;;;48.30;24.33;;;8.40;99.90;;;;;;5016040;28;20168;-56
2023/04/17 04:01:14;;;;;;;47.47;24.45;;;8.50;99.90;;;;;;5010944;28;20053;-59
2023/04/17 04:03:40;;;;;;;48.38;25.05;;;8.60;99.90;;;;;;5012558;28;20388;-57
2023/04/17 04:06:06;;;;;;;46.33;24.45;;;8.40;99.90;;;;;;5013068;28;20441;-53
2023/04/17 04:08:32;;;;;;;45.08;24.95;;;8.50;99.90;;;;;;5012362;28;20045;-55
2023/04/17 04:10:59;;;;;;;44.28;24.30;;;8.50;99.90;;;;;;5012424;28;20077;-56
2023/04/17 04:13:25;;;;;;;47.13;24.70;;;8.60;99.90;;;;;;5011932;28;20116;-56
2023/04/17 04:15:51;;;;;;;45.45;22.58;;;8.40;99.90;;;;;;5012127;28;20388;-53
2023/04/17 04:18:17;;;;;;;40.08;21.45;;;8.50;99.90;;;;;;5011179;28;20042;-57
2023/04/17 04:20:43;;;;;;;40.97;22.17;;;8.30;99.90;;;;;;5010940;28;20074;-60
2023/04/17 04:23:09;;;;;;;41.20;22.30;;;8.40;99.90;;;;;;5011749;28;20038;-54
2023/04/17 04:25:35;;;;;;;39.25;22.65;;;8.40;99.90;;;;;;5012002;28;20038;-54
2023/04/17 04:28:01;;;;;;;37.78;20.80;;;8.40;99.90;;;;;;5011725;28;20397;-58
2023/04/17 04:30:29;;;;;;;37.50;21.90;;;8.30;99.90;;;;;;5011959;28;20200;-56
2023/04/17 04:32:55;;;;;;;41.33;21.65;;;8.50;99.90;;;;;;5011470;28;20645;-57
2023/04/17 04:35:24;;;;;;;44.25;22.58;;;8.50;99.90;;;;;;5010043;28;20137;-59
2023/04/17 04:37:53;;;;;;;43.80;21.75;;;8.50;99.90;;;;;;5010791;28;20377;-60
2023/04/17 04:40:20;;;;;;;42.03;21.77;;;8.50;99.90;;;;;;5010551;28;20038;-55
2023/04/17 04:42:48;;;;;;;43.40;22.23;;;8.50;99.90;;;;;;5011363;28;20045;-56
2023/04/17 04:45:15;;;;;;;43.90;23.27;;;8.30;99.90;;;;;;5019248;28;20045;-58
2023/04/17 04:47:41;;;;;;;39.30;21.50;;;8.80;99.90;;;;;;5010699;28;20386;-58
2023/04/17 04:50:07;;;;;;;40.60;23.00;;;8.50;99.90;;;;;;5011669;28;20044;-58
2023/04/17 04:52:33;;;;;;;37.42;22.17;;;8.50;99.90;;;;;;5009526;28;20129;-57
2023/04/17 04:54:59;;;;;;;44.13;22.33;;;8.30;99.90;;;;;;4972999;28;1109273;-57
2023/04/17 04:57:25;;;;;;;41.08;21.23;;;8.20;99.90;;;;;;5009109;28;20045;-57
2023/04/17 04:59:51;;;;;;;43.58;22.30;;;8.20;99.90;;;;;;5012037;28;20042;-50
2023/04/17 05:02:17;;;;;;;42.10;23.08;;;8.30;99.90;;;;;;5010036;28;20034;-56
2023/04/17 05:04:43;;;;;;;37.97;21.35;;;8.50;99.90;;;;;;5011734;28;20041;-50
2023/04/17 05:07:08;;;;;;;42.55;22.70;;;8.40;99.90;;;;;;5010166;28;20477;-55
2023/04/17 05:09:34;;;;;;;40.53;21.95;;;8.10;99.90;;;;;;5010584;28;20103;-53
2023/04/17 05:12:00;;;;;;;41.45;21.23;;;8.10;99.90;;;;;;5010187;28;20030;-54
2023/04/17 05:14:26;;;;;;;41.35;21.90;;;8.50;99.90;;;;;;5011819;28;20124;-55
2023/04/17 05:16:54;;;;;;;43.50;23.40;;;8.50;99.90;;;;;;5011018;28;20268;-59
2023/04/17 05:19:20;;;;;;;42.55;22.92;;;8.20;99.90;;;;;;5010764;28;20113;-52
2023/04/17 05:21:45;;;;;;;42.22;22.35;;;8.20;99.90;;;;;;5010076;28;20117;-56
2023/04/17 05:24:11;;;;;;;45.35;23.00;;;8.40;99.90;;;;;;5010556;28;20363;-52
2023/04/17 05:26:36;;;;;;;46.15;23.67;;;8.40;99.90;;;;;;5010535;28;20437;-55
2023/04/17 05:29:02;;;;;;;40.70;21.40;;;8.30;99.90;;;;;;5010906;28;20033;-52
2023/04/17 05:31:28;;;;;;;39.83;20.73;;;8.40;99.90;;;;;;5012681;28;20084;-54
2023/04/17 05:33:53;;;;;;;43.65;21.88;;;8.30;99.90;;;;;;5011787;28;20061;-52
2023/04/17 05:36:21;;;;;;;42.50;22.50;;;8.40;99.90;;;;;;5010217;28;20038;-54
2023/04/17 05:38:47;;;;;;;37.95;21.08;;;8.40;99.90;;;;;;5010469;28;20034;-59
2023/04/17 05:41:13;;;;;;;42.60;22.33;;;8.40;99.90;;;;;;5009560;28;20039;-60
2023/04/17 05:43:38;;;;;;;41.90;22.38;;;8.30;99.90;;;;;;5010988;28;20117;-50
2023/04/17 05:46:04;;;;;;;38.70;22.10;;;8.20;99.90;;;;;;5008703;28;20039;-54
2023/04/17 05:48:30;;;;;;;39.38;21.08;;;8.40;99.90;;;;;;5009820;28;20040;-55
2023/04/17 05:50:56;;;;;;;40.15;22.70;;;8.20;99.90;;;;;;5009624;28;20042;-57
2023/04/17 05:53:22;;;;;;;40.10;23.27;;;8.40;99.90;;;;;;4992494;28;20473;-58
2023/04/17 05:55:47;;;;;;;35.95;21.20;;;8.30;99.90;;;;;;5008904;28;20062;-57
2023/04/17 05:58:13;;;;;;;38.42;21.33;;;8.10;99.90;;;;;;5009741;28;20397;-56
2023/04/17 06:00:40;;;;;;;41.25;22.13;;;8.10;99.90;;;;;;5008997;28;20057;-59
2023/04/17 06:03:06;;;;;;;39.15;21.83;;;8.20;99.90;;;;;;5011698;28;20385;-56
2023/04/17 06:05:32;;;;;;;35.70;21.00;;;8.10;99.90;;;;;;4994240;28;20038;-57
2023/04/17 06:07:58;;;;;;;38.88;21.17;;;8.20;99.90;;;;;;5009611;28;20045;-60
2023/04/17 06:10:24;;;;;;;35.05;20.98;;;8.30;99.90;;;;;;5009085;28;20091;-53
2023/04/17 06:12:49;;;;;;;35.92;20.50;;;8.60;99.90;;;;;;5010283;28;20405;-54
2023/04/17 06:15:15;;;;;;;37.85;20.83;;;8.30;99.90;;;;;;5009991;28;20048;-56
2023/04/17 06:17:41;;;;;;;34.22;20.85;;;8.30;99.90;;;;;;5009823;28;20069;-53
2023/04/17 06:20:11;;;;;;;36.55;20.88;;;8.40;99.90;;;;;;5008849;28;20045;-56
2023/04/17 06:22:38;;;;;;;36.03;20.38;;;8.20;99.90;;;;;;5009891;28;20038;-56
2023/04/17 06:25:04;;;;;;;36.95;21.30;;;8.20;99.90;;;;;;5008990;28;20042;-60
2023/04/17 06:27:29;;;;;;;33.72;19.35;;;8.20;99.90;;;;;;5010252;28;20050;-60
2023/04/17 06:29:55;;;;;;;34.08;20.42;;;8.10;99.90;;;;;;5007990;28;20053;-54
2023/04/17 06:32:21;;;;;;;33.83;20.15;;;8.30;99.90;;;;;;4991856;28;20116;-58
2023/04/17 06:34:46;;;;;;;36.00;28.77;;;8.30;99.90;;;;;;5007649;28;20042;-57
2023/04/17 06:37:12;;;;;;;40.88;20.30;;;8.40;99.90;;;;;;5009956;28;20042;-52
2023/04/17 06:39:38;;;;;;;43.38;21.35;;;8.20;99.90;;;;;;5009753;28;20042;-51
2023/04/17 06:42:05;;;;;;;38.47;20.40;;;8.40;99.90;;;;;;4993759;28;20081;-59
2023/04/17 06:44:31;;;;;;;39.60;21.10;;;8.40;99.90;;;;;;5011039;28;20117;-49
2023/04/17 06:46:57;;;;;;;33.38;19.73;;;8.50;99.90;;;;;;5011429;28;20537;-54
2023/04/17 06:49:23;;;;;;;35.55;19.95;;;8.30;99.90;;;;;;5010760;28;20117;-56
2023/04/17 06:51:50;;;;;;;32.80;18.88;;;8.50;99.90;;;;;;5011310;28;20079;-61
2023/04/17 06:54:16;;;;;;;32.45;18.63;;;8.40;99.90;;;;;;5015482;28;20632;-55
2023/04/17 06:56:42;;;;;;;33.58;18.55;;;8.50;99.90;;;;;;5030856;28;20080;-51
2023/04/17 06:59:08;;;;;;;35.00;19.40;;;8.70;99.90;;;;;;5030755;28;20077;-53
2023/04/17 07:01:34;;;;;;;32.47;18.92;;;8.70;99.90;;;;;;5030883;28;20108;-56
2023/04/17 07:04:00;;;;;;;35.88;19.50;;;8.70;99.90;;;;;;5030811;28;20052;-56
2023/04/17 07:06:27;;;;;;;31.17;19.25;;;8.60;99.90;;;;;;5029289;28;20095;-56
2023/04/17 07:08:53;;;;;;;30.92;18.92;;;8.50;99.90;;;;;;5015215;28;20377;-56
2023/04/17 07:11:19;;;;;;;33.42;19.10;;;8.50;99.90;;;;;;5010522;28;20037;-56
2023/04/17 07:13:44;;;;;;;34.75;18.77;;;8.50;99.90;;;;;;5011233;28;20521;-59
2023/04/17 07:16:10;;;;;;;34.15;19.10;;;8.50;99.90;;;;;;5010925;28;20061;-59
2023/04/17 07:18:36;;;;;;;34.97;20.42;;;8.70;99.90;;;;;;5010078;28;20095;-56
2023/04/17 07:21:02;;;;;;;36.00;20.60;;;8.50;99.90;;;;;;4990620;28;20037;-57
2023/04/17 07:23:28;;;;;;;36.42;20.13;;;8.50;99.90;;;;;;4990769;28;20039;-57
2023/04/17 07:25:54;;;;;;;36.08;20.63;;;8.60;99.90;;;;;;4988989;28;20026;-51
2023/04/17 07:28:20;;;;;;;37.33;20.75;;;8.50;99.90;;;;;;4991690;28;20427;-49
2023/04/17 07:30:46;;;;;;;38.10;21.58;;;8.60;99.90;;;;;;4994157;28;20037;-59
2023/04/17 07:33:12;;;;;;;35.15;19.00;;;8.60;99.90;;;;;;4992284;28;20034;-54
2023/04/17 07:35:37;;;;;;;37.45;20.80;;;8.70;99.90;;;;;;4990078;28;20125;-54
2023/04/17 07:38:03;;;;;;;35.65;20.67;;;8.60;99.90;;;;;;4990022;28;20125;-53
2023/04/17 07:40:30;;;;;;;33.70;19.45;;;8.80;99.90;;;;;;4993026;28;20141;-55
2023/04/17 07:42:56;;;;;;;33.28;20.17;;;8.70;99.90;;;;;;4989137;28;20042;-55
2023/04/17 07:45:22;;;;;;;33.35;19.33;;;9.00;99.90;;;;;;4988965;28;20547;-59
2023/04/17 07:47:50;;;;;;;32.08;18.98;;;9.10;99.90;;;;;;4989887;28;20038;-59
2023/04/17 07:50:15;;;;;;;30.55;18.52;;;9.00;99.90;;;;;;4989783;28;20049;-53
2023/04/17 07:52:41;;;;;;;31.60;18.73;;;9.10;99.90;;;;;;4989826;28;20030;-54
2023/04/17 07:55:07;;;;;;;33.55;19.48;;;9.30;99.90;;;;;;4989082;28;22770;-60
2023/04/17 07:57:33;;;;;;;33.78;21.10;;;9.30;99.90;;;;;;4991216;28;20038;-56
2023/04/17 07:59:58;;;;;;;33.58;19.83;;;9.40;99.90;;;;;;4991924;28;20052;-54
2023/04/17 08:02:24;;;;;;;35.25;20.98;;;9.50;99.90;;;;;;4988280;28;20501;-52
2023/04/17 08:04:50;;;;;;;34.35;20.48;;;9.30;99.90;;;;;;4993569;28;20126;-56
2023/04/17 08:07:17;;;;;;;31.65;19.23;;;9.30;99.90;;;;;;4989364;28;20485;-56
2023/04/17 08:09:43;;;;;;;31.48;19.88;;;9.50;99.90;;;;;;4986435;28;20038;-57
2023/04/17 08:12:09;;;;;;;31.55;20.70;;;9.50;99.90;;;;;;4997914;28;20033;-53
2023/04/17 08:14:35;;;;;;;30.17;19.92;;;9.60;99.90;;;;;;4998884;28;20076;-56
2023/04/17 08:17:01;;;;;;;30.70;19.63;;;9.70;99.90;;;;;;4998156;28;20081;-55
2023/04/17 08:19:28;;;;;;;28.58;19.92;;;9.90;99.90;;;;;;4996913;28;20080;-57
2023/04/17 08:22:01;;;;;;;30.75;19.73;;;9.80;99.90;;;;;;4997751;28;20034;-56
2023/04/17 08:24:27;;;;;;;30.92;19.10;;;9.90;99.90;;;;;;4994667;28;20073;-55
2023/04/17 08:26:53;;;;;;;29.15;19.52;;;10.00;99.90;;;;;;4998831;28;20081;-58
2023/04/17 08:29:18;;;;;;;28.13;19.50;;;10.10;99.90;;;;;;4997534;28;20073;-60
2023/04/17 08:31:44;;;;;;;28.13;20.30;;;10.00;99.90;;;;;;4998553;28;20096;-59
2023/04/17 08:34:10;;;;;;;30.73;19.33;;;10.20;99.90;;;;;;4996495;28;20057;-53
2023/04/17 08:36:35;;;;;;;28.80;20.35;;;10.20;99.90;;;;;;4996562;28;20034;-57
2023/04/17 08:39:01;;;;;;;30.35;21.55;;;10.20;99.90;;;;;;4996048;28;20042;-57
2023/04/17 08:41:36;;;;;;;31.90;21.15;;;10.40;99.90;;;;;;4995317;28;20034;-54
2023/04/17 08:44:02;;;;;;;35.47;22.27;;;10.40;99.90;;;;;;4997776;28;20046;-55
2023/04/17 08:46:30;;;;;;;32.47;21.05;;;10.50;99.90;;;;;;4996972;28;20181;-52
2023/04/17 08:48:56;;;;;;;29.85;20.50;;;10.70;99.90;;;;;;4995699;28;20113;-56
2023/04/17 08:51:25;;;;;;;31.63;19.95;;;10.70;99.90;;;;;;4996007;28;20041;-54
2023/04/17 08:53:51;;;;;;;33.38;22.00;;;10.70;99.90;;;;;;4993233;28;20044;-56
2023/04/17 08:56:16;;;;;;;32.45;20.83;;;10.80;99.90;;;;;;4995702;28;20424;-56
2023/04/17 08:58:42;;;;;;;32.47;20.73;;;10.70;99.90;;;;;;4996576;28;20202;-60
2023/04/17 09:01:10;;;;;;;32.78;20.65;;;10.70;99.90;;;;;;4995818;28;20042;-58
2023/04/17 09:03:45;;;;;;;31.48;20.15;;;10.70;99.90;;;;;;4992984;28;20045;-52
2023/04/17 09:06:11;;;;;;;32.97;20.83;;;10.70;99.90;;;;;;4992245;28;20030;-56
2023/04/17 09:08:38;;;;;;;33.60;19.90;;;10.70;99.90;;;;;;4996128;28;20115;-55
2023/04/17 09:11:14;;;;;;;34.80;20.02;;;10.80;99.90;;;;;;4995996;28;20042;-58
2023/04/17 09:13:40;;;;;;;29.98;19.05;;;11.00;99.90;;;;;;4994555;28;20069;-54
2023/04/17 09:16:09;;;;;;;28.98;19.17;;;11.00;99.90;;;;;;4996737;28;20085;-56
2023/04/17 09:18:35;;;;;;;28.55;19.23;;;11.00;99.90;;;;;;4996913;28;20512;-56
2023/04/17 09:21:03;;;;;;;29.33;19.52;;;11.00;99.90;;;;;;4999561;28;20092;-56
2023/04/17 09:23:45;;;;;;;31.33;19.80;;;11.10;99.90;;;;;;5000940;28;20347;-58
2023/04/17 09:26:13;;;;;;;27.08;18.50;;;11.10;99.90;;;;;;4998930;28;20116;-57
2023/04/17 09:28:39;;;;;;;30.15;19.63;;;11.30;99.90;;;;;;4999919;28;20061;-54
2023/04/17 09:31:26;;;;;;;27.30;18.27;;;11.30;99.90;;;;;;4997804;28;20034;-50
2023/04/17 09:34:03;;;;;;;26.58;18.92;;;11.40;99.90;;;;;;4998698;28;20061;-56
2023/04/17 09:36:37;;;;;;;29.48;19.08;;;11.50;99.90;;;;;;4996561;28;20042;-55
2023/04/17 09:39:17;;;;;;;33.50;19.88;;;11.70;99.90;;;;;;4999578;28;20121;-52
2023/04/17 09:41:43;;;;;;;29.00;19.17;;;11.80;99.90;;;;;;5000820;28;20042;-57
2023/04/17 09:44:11;;;;;;;29.17;19.55;;;11.80;99.90;;;;;;4999978;28;20448;-54
2023/04/17 09:46:44;;;;;;;27.98;20.98;;;11.90;99.90;;;;;;4999983;28;20137;-50
2023/04/17 09:49:32;;;;;;;27.27;17.83;;;12.00;99.90;;;;;;4998992;28;20029;-53
2023/04/17 09:51:58;;;;;;;26.85;18.77;;;12.20;99.90;;;;;;5002466;28;20685;-58
2023/04/17 09:54:25;;;;;;;27.88;19.13;;;12.30;99.90;;;;;;5000414;28;20061;-57
2023/04/17 09:56:54;;;;;;;27.58;24.35;;;12.50;99.90;;;;;;5001140;28;20045;-52
2023/04/17 09:59:22;;;;;;;28.48;20.30;;;12.70;99.90;;;;;;5000921;28;22772;-55
2023/04/17 10:01:49;;;;;;;29.67;20.45;;;12.80;99.90;;;;;;5000143;28;20101;-56
2023/04/17 10:04:15;;;;;;;29.23;25.17;;;12.90;99.90;;;;;;5001154;28;20050;-55
2023/04/17 10:06:40;;;;;;;28.13;19.33;;;13.00;99.90;;;;;;5000180;28;20046;-55
2023/04/17 10:09:07;;;;;;;26.58;23.38;;;13.10;99.90;;;;;;5001414;28;20029;-56
2023/04/17 10:11:39;;;;;;;29.67;25.60;;;13.20;99.90;;;;;;5000924;28;20389;-57
2023/04/17 10:14:28;;;;;;;27.70;24.15;;;13.40;99.90;;;;;;4999988;28;20064;-58
2023/04/17 10:16:54;;;;;;;29.33;24.88;;;13.50;99.90;;;;;;4993609;28;20494;-56
2023/04/17 10:19:26;;;;;;;28.77;23.23;;;13.60;99.90;;;;;;5001355;28;20120;-51
2023/04/17 10:22:19;;;;;;;28.50;24.38;;;13.60;99.90;;;;;;5006741;28;20121;-56
2023/04/17 10:24:48;;;;;;;27.83;23.48;;;13.70;99.90;;;;;;5006450;28;20046;-55
2023/04/17 10:27:25;;;;;;;28.50;24.55;;;13.90;99.90;;;;;;5007217;28;20125;-54
2023/04/17 10:29:55;;;;;;;30.77;23.83;;;14.00;99.90;;;;;;5007004;28;20053;-58
2023/04/17 10:32:24;;;;;;;28.23;23.17;;;14.10;99.90;;;;;;5007489;28;20654;-55
2023/04/17 10:34:51;;;;;;;31.83;23.08;;;14.20;99.90;;;;;;5008704;28;20124;-55
2023/04/17 10:37:17;;;;;;;28.23;22.55;;;14.30;99.90;;;;;;5008907;28;20045;-55
2023/04/17 10:39:53;;;;;;;26.80;22.42;;;14.50;99.90;;;;;;5006601;28;20386;-56
2023/04/17 10:42:21;;;;;;;31.42;22.85;;;14.70;99.90;;;;;;5008380;28;20041;-53
2023/04/17 10:44:47;;;;;;;30.38;21.63;;;14.90;99.90;;;;;;5007791;28;20033;-54
2023/04/17 10:47:14;;;;;;;27.13;22.60;;;14.80;99.90;;;;;;5008349;28;20439;-53
2023/04/17 10:49:59;;;;;;;25.45;22.75;;;14.70;99.90;;;;;;5007807;28;20497;-54
2023/04/17 10:52:31;;;;;;;25.50;22.48;;;14.80;99.90;;;;;;5009582;28;20034;-56
2023/04/17 10:55:19;;;;;;;25.58;22.80;;;14.90;99.90;;;;;;5006844;28;20077;-53
2023/04/17 10:58:01;;;;;;;25.05;22.25;;;15.00;99.90;;;;;;5005430;28;20067;-56
2023/04/17 11:00:34;;;;;;;26.65;22.75;;;15.30;99.90;;;;;;5002356;28;20463;-51
2023/04/17 11:03:01;;;;;;;26.95;21.63;;;15.50;99.90;;;;;;5002218;28;20124;-54
2023/04/17 11:05:27;;;;;;;24.65;21.75;;;15.50;99.90;;;;;;5005414;28;21487;-56
2023/04/17 11:07:53;;;;;;;23.17;20.75;;;15.40;99.90;;;;;;5007432;28;20057;-56
2023/04/17 11:10:20;;;;;;;21.88;19.67;;;15.50;99.90;;;;;;5004960;28;20031;-57
2023/04/17 11:12:47;;;;;;;22.30;19.88;;;15.50;99.90;;;;;;5002596;28;20030;-56
2023/04/17 11:15:13;;;;;;;20.25;18.15;;;15.60;99.90;;;;;;5003657;28;20045;-55
2023/04/17 11:17:45;;;;;;;20.50;18.38;;;15.80;99.90;;;;;;5006740;28;20046;-58
2023/04/17 11:20:11;;;;;;;24.00;19.52;;;15.90;99.90;;;;;;5007419;28;20074;-61
2023/04/17 11:22:37;;;;;;;20.48;18.15;;;15.80;99.90;;;;;;5009308;28;20042;-57
2023/04/17 11:25:03;;;;;;;21.40;18.55;;;15.70;99.90;;;;;;5010154;28;20042;-59
2023/04/17 11:27:29;;;;;;;19.35;16.77;;;15.60;99.90;;;;;;5008123;28;20104;-56
2023/04/17 11:29:54;;;;;;;20.80;16.85;;;15.70;99.90;;;;;;5009955;28;20033;-54
2023/04/17 11:32:20;;;;;;;19.05;15.90;;;15.90;99.90;;;;;;5008267;28;20214;-55
2023/04/17 11:34:46;;;;;;;18.17;15.68;;;16.10;99.90;;;;;;5008487;28;20045;-58
2023/04/17 11:37:15;;;;;;;19.95;17.23;;;16.30;99.90;;;;;;5007282;28;20550;-56
2023/04/17 11:39:41;;;;;;;19.42;17.13;;;16.40;99.90;;;;;;5007484;28;20551;-57
2023/04/17 11:42:07;;;;;;;18.15;16.20;;;16.60;99.90;;;;;;5006626;28;20179;-62
2023/04/17 11:44:33;;;;;;;17.45;15.55;;;16.50;99.90;;;;;;5006887;28;20155;-57
2023/04/17 11:47:00;;;;;;;16.90;14.82;;;16.30;99.90;;;;;;5010610;28;20073;-56
2023/04/17 11:49:36;;;;;;;15.35;13.75;;;16.20;99.90;;;;;;5013110;28;20038;-57
2023/04/17 11:52:04;;;;;;;15.68;13.45;;;16.30;99.90;;;;;;5011182;28;20036;-56
2023/04/17 11:54:37;;;;;;;15.18;11.93;;;16.50;99.90;;;;;;5011670;28;20037;-56
2023/04/17 11:57:05;;;;;;;13.95;11.20;;;16.70;99.90;;;;;;5011174;28;20047;-53
2023/04/17 11:59:36;;;;;;;12.32;10.55;;;17.00;99.90;;;;;;5011718;28;20041;-57
2023/04/17 12:02:03;;;;;;;14.52;11.60;;;17.30;99.90;;;;;;4995156;28;20050;-53
2023/04/17 12:04:33;;;;;;;13.13;10.68;;;17.60;99.90;;;;;;5012394;28;20046;-61
2023/04/17 12:07:03;;;;;;;14.32;10.85;;;17.80;99.90;;;;;;5012369;28;20048;-56
2023/04/17 12:09:32;;;;;;;14.85;10.02;;;17.80;99.90;;;;;;5011706;28;20034;-55
2023/04/17 12:12:02;;;;;;;13.68;9.73;;;17.60;99.90;;;;;;5013102;28;20052;-56
2023/04/17 12:14:28;;;;;;;11.98;9.20;;;17.40;99.90;;;;;;5010665;28;20038;-58
2023/04/17 12:16:54;;;;;;;10.55;8.85;;;17.20;99.90;;;;;;5012520;28;20104;-58
2023/04/17 12:19:20;;;;;;;11.32;9.23;;;17.00;99.90;;;;;;5011498;28;20398;-55
2023/04/17 12:21:51;;;;;;;11.95;9.23;;;16.80;99.90;;;;;;5012386;28;20045;-52
2023/04/17 12:24:18;;;;;;;11.43;9.55;;;16.70;99.90;;;;;;5011706;28;20421;-54
2023/04/17 12:26:48;;;;;;;10.85;8.65;;;16.60;99.90;;;;;;5013042;28;20046;-52
2023/04/17 12:29:15;;;;;;;11.48;8.75;;;16.50;99.90;;;;;;5012133;28;20038;-54
2023/04/17 12:31:41;;;;;;;12.43;8.85;;;16.50;99.90;;;;;;5011127;28;20037;-60